createdAt,value
2018-07-19T00:00:32.943Z,1010.72
2018-07-19T00:01:13.519Z,1010.76
2018-07-19T00:01:54.097Z,1010.75
2018-07-19T00:02:34.650Z,1010.7
2018-07-19T00:03:15.221Z,1010.73
2018-07-19T00:03:55.786Z,1010.75
2018-07-19T00:04:36.348Z,1010.78
2018-07-19T00:05:16.921Z,1010.8
2018-07-19T00:05:57.480Z,1010.74
2018-07-19T00:06:38.054Z,1010.75
2018-07-19T00:07:18.625Z,1010.76
2018-07-19T00:07:59.221Z,1010.74
2018-07-19T00:08:39.752Z,1010.79
2018-07-19T00:09:20.317Z,1010.73
2018-07-19T00:10:00.908Z,1010.72
2018-07-19T00:10:41.468Z,1010.74
2018-07-19T00:11:22.047Z,1010.73
2018-07-19T00:12:02.609Z,1010.76
2018-07-19T00:12:43.165Z,1010.75
2018-07-19T00:13:23.735Z,1010.75
2018-07-19T00:14:04.305Z,1010.76
2018-07-19T00:14:44.875Z,1010.71
2018-07-19T00:15:25.451Z,1010.75
2018-07-19T00:16:06.019Z,1010.8
2018-07-19T00:16:46.593Z,1010.79
2018-07-19T00:17:27.159Z,1010.73
2018-07-19T00:18:07.756Z,1010.7
2018-07-19T00:18:48.328Z,1010.74
2018-07-19T00:19:28.898Z,1010.77
2018-07-19T00:20:09.474Z,1010.77
2018-07-19T00:20:50.046Z,1010.76
2018-07-19T00:21:30.612Z,1010.77
2018-07-19T00:22:11.177Z,1010.82
2018-07-19T00:22:51.749Z,1010.76
2018-07-19T00:23:32.328Z,1010.82
2018-07-19T00:24:12.899Z,1010.81
2018-07-19T00:24:53.470Z,1010.79
2018-07-19T00:25:34.044Z,1010.79
2018-07-19T00:26:14.617Z,1010.8
2018-07-19T00:26:55.176Z,1010.81
2018-07-19T00:27:35.753Z,1010.81
2018-07-19T00:28:16.323Z,1010.79
2018-07-19T00:28:56.892Z,1010.83
2018-07-19T00:29:37.461Z,1010.81
2018-07-19T00:30:18.037Z,1010.82
2018-07-19T00:30:58.617Z,1010.85
2018-07-19T00:31:39.183Z,1010.88
2018-07-19T00:32:19.748Z,1010.85
2018-07-19T00:33:00.317Z,1010.84
2018-07-19T00:33:40.885Z,1010.87
2018-07-19T00:34:21.458Z,1010.85
2018-07-19T00:35:02.037Z,1010.88
2018-07-19T00:35:42.612Z,1010.86
2018-07-19T00:36:23.179Z,1010.82
2018-07-19T00:37:03.740Z,1010.85
2018-07-19T00:37:44.305Z,1010.88
2018-07-19T00:38:24.880Z,1010.84
2018-07-19T00:39:05.447Z,1010.81
2018-07-19T00:39:46.014Z,1010.81
2018-07-19T00:40:26.592Z,1010.85
2018-07-19T00:41:07.159Z,1010.81
2018-07-19T00:41:47.724Z,1010.83
2018-07-19T00:42:28.300Z,1010.82
2018-07-19T00:43:08.873Z,1010.84
2018-07-19T00:43:49.440Z,1010.85
2018-07-19T00:44:30.018Z,1010.83
2018-07-19T00:45:10.595Z,1010.85
2018-07-19T00:45:51.171Z,1010.87
2018-07-19T00:46:31.766Z,1010.88
2018-07-19T00:47:12.330Z,1010.82
2018-07-19T00:47:52.900Z,1010.82
2018-07-19T00:48:33.463Z,1010.8
2018-07-19T00:49:14.030Z,1010.83
2018-07-19T00:49:54.599Z,1010.86
2018-07-19T00:50:35.176Z,1010.82
2018-07-19T00:51:15.726Z,1010.82
2018-07-19T00:51:56.281Z,1010.83
2018-07-19T00:52:36.871Z,1010.82
2018-07-19T00:53:17.441Z,1010.83
2018-07-19T00:53:58.022Z,1010.86
2018-07-19T00:54:38.600Z,1010.87
2018-07-19T00:55:19.166Z,1010.81
2018-07-19T00:55:59.736Z,1010.83
2018-07-19T00:56:40.313Z,1010.77
2018-07-19T00:57:20.886Z,1010.87
2018-07-19T00:58:01.471Z,1010.8
2018-07-19T00:58:42.031Z,1010.84
2018-07-19T00:59:22.605Z,1010.79
2018-07-19T01:00:03.174Z,1010.83
2018-07-19T01:00:43.747Z,1010.8
2018-07-19T01:01:24.313Z,1010.8
2018-07-19T01:02:04.882Z,1010.79
2018-07-19T01:02:45.453Z,1010.78
2018-07-19T01:03:26.025Z,1010.74
2018-07-19T01:04:06.593Z,1010.76
2018-07-19T01:04:47.165Z,1010.79
2018-07-19T01:05:27.733Z,1010.75
2018-07-19T01:06:08.309Z,1010.74
2018-07-19T01:06:48.883Z,1010.72
2018-07-19T01:07:29.448Z,1010.75
2018-07-19T01:08:10.037Z,1010.71
2018-07-19T01:08:50.600Z,1010.78
2018-07-19T01:09:31.199Z,1010.75
2018-07-19T01:10:11.773Z,1010.76
2018-07-19T01:10:52.345Z,1010.71
2018-07-19T01:11:32.905Z,1010.73
2018-07-19T01:12:13.486Z,1010.71
2018-07-19T01:12:54.057Z,1010.75
2018-07-19T01:13:34.634Z,1010.68
2018-07-19T01:14:15.200Z,1010.69
2018-07-19T01:14:55.756Z,1010.72
2018-07-19T01:15:36.318Z,1010.71
2018-07-19T01:16:16.902Z,1010.69
2018-07-19T01:16:57.471Z,1010.7
2018-07-19T01:17:38.053Z,1010.66
2018-07-19T01:18:18.612Z,1010.67
2018-07-19T01:18:59.184Z,1010.7
2018-07-19T01:19:39.752Z,1010.68
2018-07-19T01:20:20.327Z,1010.6
2018-07-19T01:21:00.899Z,1010.67
2018-07-19T01:21:41.474Z,1010.64
2018-07-19T01:22:22.040Z,1010.63
2018-07-19T01:23:02.611Z,1010.66
2018-07-19T01:23:43.191Z,1010.64
2018-07-19T01:24:23.764Z,1010.64
2018-07-19T01:25:04.338Z,1010.62
2018-07-19T01:25:44.914Z,1010.68
2018-07-19T01:26:25.472Z,1010.68
2018-07-19T01:27:06.052Z,1010.67
2018-07-19T01:27:46.618Z,1010.67
2018-07-19T01:28:27.190Z,1010.64
2018-07-19T01:29:07.761Z,1010.64
2018-07-19T01:29:48.340Z,1010.69
2018-07-19T01:30:28.913Z,1010.7
2018-07-19T01:31:09.483Z,1010.66
2018-07-19T01:31:50.054Z,1010.62
2018-07-19T01:32:30.618Z,1010.64
2018-07-19T01:33:11.186Z,1010.62
2018-07-19T01:33:51.763Z,1010.66
2018-07-19T01:34:32.336Z,1010.63
2018-07-19T01:35:12.904Z,1010.63
2018-07-19T01:35:53.481Z,1010.65
2018-07-19T01:36:34.039Z,1010.65
2018-07-19T01:37:14.611Z,1010.68
2018-07-19T01:37:55.178Z,1010.74
2018-07-19T01:38:35.746Z,1010.71
2018-07-19T01:39:16.309Z,1010.7
2018-07-19T01:39:56.889Z,1010.67
2018-07-19T01:40:37.436Z,1010.68
2018-07-19T01:41:18.004Z,1010.64
2018-07-19T01:41:58.571Z,1010.66
2018-07-19T01:42:39.129Z,1010.7
2018-07-19T01:43:19.691Z,1010.73
2018-07-19T01:44:00.261Z,1010.72
2018-07-19T01:44:40.835Z,1010.68
2018-07-19T01:45:21.413Z,1010.72
2018-07-19T01:46:01.985Z,1010.76
2018-07-19T01:46:42.549Z,1010.77
2018-07-19T01:47:23.125Z,1010.7
2018-07-19T01:48:03.688Z,1010.74
2018-07-19T01:48:44.260Z,1010.72
2018-07-19T01:49:24.835Z,1010.78
2018-07-19T01:50:05.425Z,1010.76
2018-07-19T01:50:45.974Z,1010.75
2018-07-19T01:51:26.537Z,1010.72
2018-07-19T01:52:07.104Z,1010.77
2018-07-19T01:52:47.670Z,1010.76
2018-07-19T01:53:28.231Z,1010.73
2018-07-19T01:54:08.802Z,1010.75
2018-07-19T01:54:49.366Z,1010.72
2018-07-19T01:55:29.931Z,1010.73
2018-07-19T01:56:10.508Z,1010.69
2018-07-19T01:56:51.078Z,1010.77
2018-07-19T01:57:31.635Z,1010.68
2018-07-19T01:58:12.212Z,1010.73
2018-07-19T01:58:52.785Z,1010.75
2018-07-19T01:59:33.346Z,1010.79
2018-07-19T02:00:13.993Z,1010.79
2018-07-19T02:00:54.504Z,1010.77
2018-07-19T02:01:35.073Z,1010.75
2018-07-19T02:02:15.643Z,1010.75
2018-07-19T02:02:56.217Z,1010.74
2018-07-19T02:03:36.799Z,1010.73
2018-07-19T02:04:17.355Z,1010.78
2018-07-19T02:04:57.933Z,1010.77
2018-07-19T02:05:38.494Z,1010.78
2018-07-19T02:06:19.067Z,1010.75
2018-07-19T02:06:59.634Z,1010.78
2018-07-19T02:07:40.211Z,1010.75
2018-07-19T02:08:20.781Z,1010.75
2018-07-19T02:09:01.349Z,1010.78
2018-07-19T02:09:41.927Z,1010.81
2018-07-19T02:10:22.495Z,1010.7
2018-07-19T02:11:03.065Z,1010.75
2018-07-19T02:11:43.644Z,1010.75
2018-07-19T02:12:24.215Z,1010.72
2018-07-19T02:13:04.793Z,1010.73
2018-07-19T02:13:45.355Z,1010.7
2018-07-19T02:14:25.924Z,1010.72
2018-07-19T02:15:06.504Z,1010.72
2018-07-19T02:15:47.091Z,1010.7
2018-07-19T02:16:27.656Z,1010.71
2018-07-19T02:17:08.236Z,1010.72
2018-07-19T02:17:48.802Z,1010.71
2018-07-19T02:18:29.380Z,1010.66
2018-07-19T02:19:09.951Z,1010.69
2018-07-19T02:19:50.525Z,1010.67
2018-07-19T02:20:31.104Z,1010.71
2018-07-19T02:21:11.674Z,1010.75
2018-07-19T02:21:52.248Z,1010.69
2018-07-19T02:22:32.821Z,1010.72
2018-07-19T02:23:13.390Z,1010.72
2018-07-19T02:23:53.947Z,1010.75
2018-07-19T02:24:34.523Z,1010.74
2018-07-19T02:25:15.104Z,1010.69
2018-07-19T02:25:55.659Z,1010.73
2018-07-19T02:26:36.237Z,1010.72
2018-07-19T02:27:16.809Z,1010.71
2018-07-19T02:27:57.378Z,1010.73
2018-07-19T02:28:37.947Z,1010.74
2018-07-19T02:29:18.529Z,1010.72
2018-07-19T02:29:59.104Z,1010.73
2018-07-19T02:30:39.675Z,1010.72
2018-07-19T02:31:20.247Z,1010.76
2018-07-19T02:32:00.818Z,1010.69
2018-07-19T02:32:41.391Z,1010.73
2018-07-19T02:33:21.962Z,1010.74
2018-07-19T02:34:02.534Z,1010.74
2018-07-19T02:34:43.106Z,1010.74
2018-07-19T02:35:23.676Z,1010.74
2018-07-19T02:36:04.253Z,1010.75
2018-07-19T02:36:44.821Z,1010.75
2018-07-19T02:37:25.401Z,1010.71
2018-07-19T02:38:05.966Z,1010.7
2018-07-19T02:38:46.541Z,1010.71
2018-07-19T02:39:27.110Z,1010.72
2018-07-19T02:40:07.686Z,1010.7
2018-07-19T02:40:48.256Z,1010.72
2018-07-19T02:41:28.832Z,1010.72
2018-07-19T02:42:09.407Z,1010.73
2018-07-19T02:42:49.977Z,1010.7
2018-07-19T02:43:30.554Z,1010.73
2018-07-19T02:44:11.124Z,1010.76
2018-07-19T02:44:51.694Z,1010.7
2018-07-19T02:45:32.267Z,1010.77
2018-07-19T02:46:12.845Z,1010.73
2018-07-19T02:46:53.413Z,1010.76
2018-07-19T02:47:33.994Z,1010.75
2018-07-19T02:48:14.564Z,1010.78
2018-07-19T02:48:55.133Z,1010.76
2018-07-19T02:49:35.694Z,1010.77
2018-07-19T02:50:16.273Z,1010.75
2018-07-19T02:50:56.842Z,1010.74
2018-07-19T02:51:37.410Z,1010.78
2018-07-19T02:52:17.981Z,1010.77
2018-07-19T02:52:58.549Z,1010.75
2018-07-19T02:53:39.121Z,1010.75
2018-07-19T02:54:19.692Z,1010.78
2018-07-19T02:55:00.267Z,1010.76
2018-07-19T02:55:40.840Z,1010.77
2018-07-19T02:56:21.408Z,1010.77
2018-07-19T02:57:01.981Z,1010.78
2018-07-19T02:57:42.554Z,1010.81
2018-07-19T02:58:23.131Z,1010.79
2018-07-19T02:59:03.700Z,1010.83
2018-07-19T02:59:44.268Z,1010.77
2018-07-19T03:00:24.846Z,1010.8
2018-07-19T03:01:05.416Z,1010.82
2018-07-19T03:01:45.990Z,1010.77
2018-07-19T03:02:26.561Z,1010.77
2018-07-19T03:03:07.138Z,1010.79
2018-07-19T03:03:47.707Z,1010.75
2018-07-19T03:04:28.278Z,1010.79
2018-07-19T03:05:08.842Z,1010.8
2018-07-19T03:05:49.403Z,1010.73
2018-07-19T03:06:30.013Z,1010.76
2018-07-19T03:07:10.539Z,1010.72
2018-07-19T03:07:51.112Z,1010.75
2018-07-19T03:08:31.666Z,1010.77
2018-07-19T03:09:12.235Z,1010.73
2018-07-19T03:09:52.810Z,1010.77
2018-07-19T03:10:33.383Z,1010.79
2018-07-19T03:11:13.956Z,1010.74
2018-07-19T03:11:54.519Z,1010.82
2018-07-19T03:12:35.090Z,1010.76
2018-07-19T03:13:15.664Z,1010.75
2018-07-19T03:13:56.245Z,1010.76
2018-07-19T03:14:36.818Z,1010.75
2018-07-19T03:15:17.386Z,1010.75
2018-07-19T03:15:57.943Z,1010.74
2018-07-19T03:16:38.526Z,1010.76
2018-07-19T03:17:19.099Z,1010.72
2018-07-19T03:17:59.667Z,1010.74
2018-07-19T03:18:40.226Z,1010.79
2018-07-19T03:19:20.801Z,1010.78
2018-07-19T03:20:01.372Z,1010.75
2018-07-19T03:20:41.944Z,1010.73
2018-07-19T03:21:22.521Z,1010.78
2018-07-19T03:22:03.089Z,1010.81
2018-07-19T03:22:43.662Z,1010.78
2018-07-19T03:23:24.232Z,1010.78
2018-07-19T03:24:04.806Z,1010.79
2018-07-19T03:24:45.377Z,1010.79
2018-07-19T03:25:25.946Z,1010.75
2018-07-19T03:26:06.518Z,1010.79
2018-07-19T03:26:47.083Z,1010.82
2018-07-19T03:27:27.650Z,1010.78
2018-07-19T03:28:08.223Z,1010.78
2018-07-19T03:28:48.800Z,1010.81
2018-07-19T03:29:29.365Z,1010.77
2018-07-19T03:30:09.935Z,1010.8
2018-07-19T03:30:50.513Z,1010.81
2018-07-19T03:31:31.080Z,1010.8
2018-07-19T03:32:11.655Z,1010.82
2018-07-19T03:32:52.223Z,1010.83
2018-07-19T03:33:32.786Z,1010.79
2018-07-19T03:34:13.352Z,1010.77
2018-07-19T03:34:53.925Z,1010.76
2018-07-19T03:35:34.495Z,1010.78
2018-07-19T03:36:15.077Z,1010.79
2018-07-19T03:36:55.643Z,1010.77
2018-07-19T03:37:36.218Z,1010.76
2018-07-19T03:38:16.783Z,1010.83
2018-07-19T03:38:57.350Z,1010.79
2018-07-19T03:39:37.916Z,1010.8
2018-07-19T03:40:18.493Z,1010.78
2018-07-19T03:40:59.060Z,1010.78
2018-07-19T03:41:39.636Z,1010.82
2018-07-19T03:42:20.205Z,1010.79
2018-07-19T03:43:00.770Z,1010.83
2018-07-19T03:43:41.349Z,1010.78
2018-07-19T03:44:21.915Z,1010.78
2018-07-19T03:45:02.490Z,1010.79
2018-07-19T03:45:43.064Z,1010.77
2018-07-19T03:46:23.624Z,1010.79
2018-07-19T03:47:04.181Z,1010.76
2018-07-19T03:47:44.759Z,1010.79
2018-07-19T03:48:25.329Z,1010.76
2018-07-19T03:49:05.898Z,1010.8
2018-07-19T03:49:46.475Z,1010.77
2018-07-19T03:50:27.099Z,1010.81
2018-07-19T03:51:07.617Z,1010.77
2018-07-19T03:51:48.192Z,1010.77
2018-07-19T03:52:28.764Z,1010.8
2018-07-19T03:53:09.329Z,1010.78
2018-07-19T03:53:49.903Z,1010.81
2018-07-19T03:54:30.477Z,1010.81
2018-07-19T03:55:11.054Z,1010.79
2018-07-19T03:55:51.620Z,1010.82
2018-07-19T03:56:32.201Z,1010.79
2018-07-19T03:57:12.769Z,1010.76
2018-07-19T03:57:53.340Z,1010.79
2018-07-19T03:58:33.906Z,1010.79
2018-07-19T03:59:14.465Z,1010.78
2018-07-19T03:59:55.036Z,1010.82
2018-07-19T04:00:35.605Z,1010.79
2018-07-19T04:01:16.185Z,1010.74
2018-07-19T04:01:56.848Z,1010.79
2018-07-19T04:02:37.333Z,1010.78
2018-07-19T04:03:17.902Z,1010.77
2018-07-19T04:03:58.477Z,1010.75
2018-07-19T04:04:39.044Z,1010.8
2018-07-19T04:05:19.615Z,1010.75
2018-07-19T04:06:00.182Z,1010.77
2018-07-19T04:06:40.753Z,1010.79
2018-07-19T04:07:21.323Z,1010.77
2018-07-19T04:08:01.893Z,1010.81
2018-07-19T04:08:42.473Z,1010.82
2018-07-19T04:09:23.043Z,1010.79
2018-07-19T04:10:03.615Z,1010.82
2018-07-19T04:10:44.197Z,1010.83
2018-07-19T04:11:24.779Z,1010.79
2018-07-19T04:12:05.366Z,1010.85
2018-07-19T04:12:45.976Z,1010.84
2018-07-19T04:13:26.544Z,1010.78
2018-07-19T04:14:07.112Z,1010.82
2018-07-19T04:14:47.690Z,1010.83
2018-07-19T04:15:28.259Z,1010.82
2018-07-19T04:16:08.827Z,1010.82
2018-07-19T04:16:49.402Z,1010.83
2018-07-19T04:17:29.992Z,1010.85
2018-07-19T04:18:10.609Z,1010.81
2018-07-19T04:18:51.175Z,1010.83
2018-07-19T04:19:31.750Z,1010.8
2018-07-19T04:20:12.324Z,1010.84
2018-07-19T04:20:52.894Z,1010.82
2018-07-19T04:21:33.464Z,1010.84
2018-07-19T04:22:14.040Z,1010.83
2018-07-19T04:22:54.609Z,1010.83
2018-07-19T04:23:35.180Z,1010.86
2018-07-19T04:24:15.749Z,1010.82
2018-07-19T04:24:56.314Z,1010.82
2018-07-19T04:25:36.881Z,1010.87
2018-07-19T04:26:17.453Z,1010.83
2018-07-19T04:26:58.027Z,1010.87
2018-07-19T04:27:38.595Z,1010.85
2018-07-19T04:28:19.167Z,1010.86
2018-07-19T04:28:59.738Z,1010.85
2018-07-19T04:29:40.329Z,1010.85
2018-07-19T04:30:20.907Z,1010.85
2018-07-19T04:31:01.481Z,1010.86
2018-07-19T04:31:42.058Z,1010.87
2018-07-19T04:32:22.692Z,1010.87
2018-07-19T04:33:03.185Z,1010.9
2018-07-19T04:33:43.751Z,1010.9
2018-07-19T04:34:24.323Z,1010.9
2018-07-19T04:35:04.892Z,1010.9
2018-07-19T04:35:45.462Z,1010.9
2018-07-19T04:36:26.030Z,1010.89
2018-07-19T04:37:06.593Z,1010.85
2018-07-19T04:37:47.167Z,1010.92
2018-07-19T04:38:27.737Z,1010.88
2018-07-19T04:39:08.294Z,1010.82
2018-07-19T04:39:48.864Z,1010.84
2018-07-19T04:40:29.421Z,1010.93
2018-07-19T04:41:10.059Z,1010.92
2018-07-19T04:41:50.679Z,1010.89
2018-07-19T04:42:31.286Z,1010.88
2018-07-19T04:43:11.859Z,1010.91
2018-07-19T04:43:52.425Z,1010.9
2018-07-19T04:44:32.988Z,1010.91
2018-07-19T04:45:13.562Z,1010.93
2018-07-19T04:45:54.157Z,1010.92
2018-07-19T04:46:34.725Z,1010.94
2018-07-19T04:47:15.297Z,1010.95
2018-07-19T04:47:55.877Z,1010.96
2018-07-19T04:48:36.444Z,1010.95
2018-07-19T04:49:17.039Z,1010.91
2018-07-19T04:49:57.605Z,1010.9
2018-07-19T04:50:38.183Z,1010.91
2018-07-19T04:51:18.759Z,1010.96
2018-07-19T04:51:59.333Z,1010.94
2018-07-19T04:52:39.902Z,1010.96
2018-07-19T04:53:20.469Z,1010.97
2018-07-19T04:54:01.042Z,1011.03
2018-07-19T04:54:41.685Z,1010.98
2018-07-19T04:55:22.187Z,1010.97
2018-07-19T04:56:02.762Z,1010.99
2018-07-19T04:56:43.372Z,1011.02
2018-07-19T04:57:23.946Z,1011.03
2018-07-19T04:58:04.519Z,1011.03
2018-07-19T04:58:45.114Z,1011.05
2018-07-19T04:59:25.683Z,1011.01
2018-07-19T05:00:06.254Z,1011.04
2018-07-19T05:00:46.814Z,1011.06
2018-07-19T05:01:27.359Z,1011.04
2018-07-19T05:02:08.020Z,1011.06
2018-07-19T05:02:48.522Z,1011.1
2018-07-19T05:03:29.109Z,1011.04
2018-07-19T05:04:09.701Z,1011.06
2018-07-19T05:04:50.271Z,1011.05
2018-07-19T05:05:30.837Z,1011.12
2018-07-19T05:06:11.408Z,1011.11
2018-07-19T05:06:51.978Z,1011.09
2018-07-19T05:07:32.550Z,1011.09
2018-07-19T05:08:13.118Z,1011.13
2018-07-19T05:08:53.673Z,1011.13
2018-07-19T05:09:34.246Z,1011.11
2018-07-19T05:10:14.810Z,1011.12
2018-07-19T05:10:55.371Z,1011.11
2018-07-19T05:11:35.940Z,1011.13
2018-07-19T05:12:16.579Z,1011.12
2018-07-19T05:12:57.160Z,1011.13
2018-07-19T05:13:37.725Z,1011.12
2018-07-19T05:14:18.293Z,1011.16
2018-07-19T05:14:58.854Z,1011.19
2018-07-19T05:15:39.420Z,1011.2
2018-07-19T05:16:20.010Z,1011.25
2018-07-19T05:17:00.570Z,1011.17
2018-07-19T05:17:41.136Z,1011.19
2018-07-19T05:18:21.714Z,1011.21
2018-07-19T05:19:02.288Z,1011.21
2018-07-19T05:19:42.855Z,1011.25
2018-07-19T05:20:23.416Z,1011.22
2018-07-19T05:21:03.991Z,1011.25
2018-07-19T05:21:44.557Z,1011.26
2018-07-19T05:22:25.138Z,1011.22
2018-07-19T05:23:05.718Z,1011.26
2018-07-19T05:23:46.278Z,1011.23
2018-07-19T05:24:26.854Z,1011.24
2018-07-19T05:25:07.433Z,1011.21
2018-07-19T05:25:48.002Z,1011.2
2018-07-19T05:26:28.572Z,1011.18
2018-07-19T05:27:09.148Z,1011.28
2018-07-19T05:27:49.714Z,1011.24
2018-07-19T05:28:30.284Z,1011.25
2018-07-19T05:29:10.849Z,1011.2
2018-07-19T05:29:51.416Z,1011.26
2018-07-19T05:30:31.983Z,1011.23
2018-07-19T05:31:12.565Z,1011.23
2018-07-19T05:31:53.133Z,1011.3
2018-07-19T05:32:33.699Z,1011.27
2018-07-19T05:33:14.272Z,1011.3
2018-07-19T05:33:54.844Z,1011.27
2018-07-19T05:34:35.428Z,1011.27
2018-07-19T05:35:15.969Z,1011.29
2018-07-19T05:35:56.520Z,1011.27
2018-07-19T05:36:37.091Z,1011.28
2018-07-19T05:37:17.664Z,1011.33
2018-07-19T05:37:58.237Z,1011.36
2018-07-19T05:38:38.811Z,1011.34
2018-07-19T05:39:19.369Z,1011.36
2018-07-19T05:39:59.941Z,1011.39
2018-07-19T05:40:40.492Z,1011.4
2018-07-19T05:41:21.069Z,1011.44
2018-07-19T05:42:01.666Z,1011.48
2018-07-19T05:42:42.205Z,1011.52
2018-07-19T05:43:23.093Z,1011.55
2018-07-19T05:44:03.821Z,1011.55
2018-07-19T05:44:44.388Z,1011.54
2018-07-19T05:45:24.956Z,1011.58
2018-07-19T05:46:05.535Z,1011.61
2018-07-19T05:46:46.091Z,1011.65
2018-07-19T05:47:26.682Z,1011.68
2018-07-19T05:48:07.415Z,1011.62
2018-07-19T05:48:47.998Z,1011.52
2018-07-19T05:49:28.579Z,1011.47
2018-07-19T05:50:09.163Z,1011.64
2018-07-19T05:50:49.737Z,1011.69
2018-07-19T05:51:30.335Z,1011.67
2018-07-19T05:52:10.909Z,1011.72
2018-07-19T05:52:51.495Z,1011.75
2018-07-19T05:53:32.063Z,1011.75
2018-07-19T05:54:12.683Z,1011.79
2018-07-19T05:54:53.499Z,1011.66
2018-07-19T05:55:34.094Z,1011.55
2018-07-19T05:56:14.812Z,1011.81
2018-07-19T05:56:56.551Z,1011.9
2018-07-19T05:57:37.259Z,1011.89
2018-07-19T05:58:17.927Z,1011.88
2018-07-19T05:58:58.567Z,1012
2018-07-19T05:59:39.152Z,1012
2018-07-19T06:00:19.747Z,1012.09
2018-07-19T06:01:00.458Z,1012.17
2018-07-19T06:01:41.033Z,1012.2
2018-07-19T06:02:22.589Z,1012.17
2018-07-19T06:03:03.162Z,1012.2
2018-07-19T06:03:43.744Z,1012.23
2018-07-19T06:04:24.383Z,1012.36
2018-07-19T06:05:05.631Z,1012.4
2018-07-19T06:05:46.276Z,1012.53
2018-07-19T06:06:26.944Z,1012.54
2018-07-19T06:07:07.701Z,1012.61
2018-07-19T06:07:48.355Z,1012.65
2018-07-19T06:08:29.605Z,1012.61
2018-07-19T06:09:10.180Z,1012.29
2018-07-19T06:09:50.986Z,1012.62
2018-07-19T06:10:32.793Z,1012.64
2018-07-19T06:11:13.419Z,1012.59
2018-07-19T06:11:54.070Z,1012.56
2018-07-19T06:12:34.644Z,1011.56
2018-07-19T06:13:15.208Z,1011.68
2018-07-19T06:13:55.778Z,1012.51
2018-07-19T06:14:36.355Z,1012.4
2018-07-19T06:15:16.936Z,1012.33
2018-07-19T06:15:57.512Z,1012.26
2018-07-19T06:16:38.067Z,1012.21
2018-07-19T06:17:18.638Z,1012.17
2018-07-19T06:17:59.213Z,1012.14
2018-07-19T06:18:39.875Z,1012.08
2018-07-19T06:19:20.409Z,1012.08
2018-07-19T06:20:00.957Z,1012.05
2018-07-19T06:20:41.547Z,1012
2018-07-19T06:21:22.175Z,1011.86
2018-07-19T06:22:02.965Z,1011.82
2018-07-19T06:22:43.520Z,1011.86
2018-07-19T06:23:24.085Z,1011.85
2018-07-19T06:24:04.664Z,1011.84
2018-07-19T06:24:45.251Z,1011.86
2018-07-19T06:25:25.826Z,1011.93
2018-07-19T06:26:06.398Z,1011.98
2018-07-19T06:26:46.948Z,1012
2018-07-19T06:27:27.598Z,1011.99
2018-07-19T06:28:08.168Z,1011.95
2018-07-19T06:28:48.842Z,1011.98
2018-07-19T06:29:29.422Z,1012.07
2018-07-19T06:30:10.144Z,1012.01
2018-07-19T06:30:51.053Z,1011.95
2018-07-19T06:31:31.951Z,1011.98
2018-07-19T06:32:12.658Z,1012.01
2018-07-19T06:32:54.006Z,1012.05
2018-07-19T06:33:34.582Z,1012.1
2018-07-19T06:34:15.153Z,1012
2018-07-19T06:34:55.726Z,1011.98
2018-07-19T06:35:36.298Z,1011.96
2018-07-19T06:36:16.923Z,1011.97
2018-07-19T06:36:57.503Z,1011.92
2018-07-19T06:37:38.075Z,1012.01
2018-07-19T06:38:18.655Z,1012.09
2018-07-19T06:38:59.239Z,1012.05
2018-07-19T06:39:39.824Z,1012.01
2018-07-19T06:40:20.622Z,1012.04
2018-07-19T06:41:01.186Z,1012.12
2018-07-19T06:41:41.748Z,1012.23
2018-07-19T06:42:22.328Z,1012.29
2018-07-19T06:43:02.909Z,1012.32
2018-07-19T06:43:43.490Z,1012.3
2018-07-19T06:44:24.066Z,1012.16
2018-07-19T06:45:04.653Z,1012.28
2018-07-19T06:45:45.215Z,1012.18
2018-07-19T06:46:25.787Z,1011.85
2018-07-19T06:47:06.361Z,1011.81
2018-07-19T06:47:46.930Z,1011.9
2018-07-19T06:48:27.509Z,1011.87
2018-07-19T06:49:08.176Z,1011.73
2018-07-19T06:49:48.786Z,1011.73
2018-07-19T06:50:29.406Z,1011.6
2018-07-19T06:51:10.000Z,1011.59
2018-07-19T06:51:50.717Z,1011.58
2018-07-19T06:52:31.353Z,1011.53
2018-07-19T06:53:12.040Z,1011.57
2018-07-19T06:53:52.665Z,1011.48
2018-07-19T06:54:33.243Z,1011.52
2018-07-19T06:55:13.826Z,1011.5
2018-07-19T06:55:54.403Z,1011.58
2018-07-19T06:56:35.282Z,1011.55
2018-07-19T06:57:15.858Z,1011.46
2018-07-19T06:57:56.443Z,1011.52
2018-07-19T06:58:37.013Z,1011.53
2018-07-19T06:59:17.590Z,1011.54
2018-07-19T06:59:58.164Z,1011.58
2018-07-19T07:00:38.744Z,1011.54
2018-07-19T07:01:19.317Z,1011.58
2018-07-19T07:01:59.881Z,1011.53
2018-07-19T07:02:40.457Z,1011.54
2018-07-19T07:03:21.034Z,1011.53
2018-07-19T07:04:01.591Z,1011.54
2018-07-19T07:04:42.165Z,1011.53
2018-07-19T07:05:22.743Z,1011.51
2018-07-19T07:06:03.324Z,1011.5
2018-07-19T07:06:43.907Z,1011.53
2018-07-19T07:07:24.488Z,1011.52
2018-07-19T07:08:05.061Z,1011.51
2018-07-19T07:08:45.629Z,1011.5
2018-07-19T07:09:26.191Z,1011.62
2018-07-19T07:10:06.775Z,1011.54
2018-07-19T07:10:47.831Z,1011.56
2018-07-19T07:11:28.554Z,1011.57
2018-07-19T07:12:09.255Z,1011.55
2018-07-19T07:12:49.882Z,1011.58
2018-07-19T07:13:30.453Z,1011.52
2018-07-19T07:14:11.036Z,1011.5
2018-07-19T07:14:51.622Z,1011.5
2018-07-19T07:15:32.180Z,1011.47
2018-07-19T07:16:12.753Z,1011.49
2018-07-19T07:16:53.330Z,1011.5
2018-07-19T07:17:33.907Z,1011.52
2018-07-19T07:18:14.475Z,1011.5
2018-07-19T07:18:55.049Z,1011.45
2018-07-19T07:19:35.626Z,1011.53
2018-07-19T07:20:16.201Z,1011.48
2018-07-19T07:20:56.785Z,1011.46
2018-07-19T07:21:37.357Z,1011.49
2018-07-19T07:22:17.932Z,1011.48
2018-07-19T07:22:58.505Z,1011.47
2018-07-19T07:23:39.076Z,1011.49
2018-07-19T07:24:19.653Z,1011.49
2018-07-19T07:25:00.230Z,1011.5
2018-07-19T07:25:40.799Z,1011.52
2018-07-19T07:26:21.375Z,1011.52
2018-07-19T07:27:01.960Z,1011.56
2018-07-19T07:27:42.535Z,1011.55
2018-07-19T07:28:23.168Z,1011.54
2018-07-19T07:29:03.668Z,1011.55
2018-07-19T07:29:44.240Z,1011.56
2018-07-19T07:30:24.817Z,1011.55
2018-07-19T07:31:05.384Z,1011.54
2018-07-19T07:31:45.958Z,1011.55
2018-07-19T07:32:26.535Z,1011.59
2018-07-19T07:33:07.257Z,1011.56
2018-07-19T07:33:47.841Z,1011.59
2018-07-19T07:34:28.434Z,1011.6
2018-07-19T07:35:09.412Z,1011.58
2018-07-19T07:35:50.139Z,1011.56
2018-07-19T07:36:30.740Z,1011.56
2018-07-19T07:37:11.307Z,1011.6
2018-07-19T07:37:51.874Z,1011.58
2018-07-19T07:38:32.429Z,1011.65
2018-07-19T07:39:12.995Z,1011.63
2018-07-19T07:39:53.550Z,1011.59
2018-07-19T07:40:34.118Z,1011.62
2018-07-19T07:41:14.679Z,1011.6
2018-07-19T07:41:55.237Z,1011.62
2018-07-19T07:42:35.813Z,1011.57
2018-07-19T07:43:16.377Z,1011.58
2018-07-19T07:43:56.945Z,1011.57
2018-07-19T07:44:37.511Z,1011.6
2018-07-19T07:45:18.090Z,1011.6
2018-07-19T07:45:58.659Z,1011.58
2018-07-19T07:46:39.238Z,1011.59
2018-07-19T07:47:19.812Z,1011.58
2018-07-19T07:48:00.378Z,1011.59
2018-07-19T07:48:40.950Z,1011.63
2018-07-19T07:49:21.555Z,1011.58
2018-07-19T07:50:02.103Z,1011.6
2018-07-19T07:50:42.676Z,1011.58
2018-07-19T07:51:23.252Z,1011.63
2018-07-19T07:52:03.820Z,1011.62
2018-07-19T07:52:44.463Z,1011.65
2018-07-19T07:53:25.036Z,1011.66
2018-07-19T07:54:05.616Z,1011.66
2018-07-19T07:54:46.159Z,1011.65
2018-07-19T07:55:26.884Z,1011.65
2018-07-19T07:56:07.450Z,1011.67
2018-07-19T07:56:48.028Z,1011.69
2018-07-19T07:57:28.597Z,1011.69
2018-07-19T07:58:09.163Z,1011.67
2018-07-19T07:58:49.737Z,1011.71
2018-07-19T07:59:30.313Z,1011.62
2018-07-19T08:00:10.884Z,1011.65
2018-07-19T08:00:51.451Z,1011.67
2018-07-19T08:01:32.030Z,1011.66
2018-07-19T08:02:12.607Z,1011.67
2018-07-19T08:02:53.176Z,1011.66
2018-07-19T08:03:33.737Z,1011.67
2018-07-19T08:04:14.292Z,1011.68
2018-07-19T08:04:54.857Z,1011.69
2018-07-19T08:05:35.434Z,1011.72
2018-07-19T08:06:16.007Z,1011.67
2018-07-19T08:06:56.583Z,1011.73
2018-07-19T08:07:37.141Z,1011.72
2018-07-19T08:08:17.714Z,1011.68
2018-07-19T08:08:58.317Z,1011.71
2018-07-19T08:09:38.850Z,1011.77
2018-07-19T08:10:19.430Z,1011.72
2018-07-19T08:11:00.032Z,1011.73
2018-07-19T08:11:40.591Z,1011.76
2018-07-19T08:12:21.201Z,1011.77
2018-07-19T08:13:01.772Z,1011.77